首页
METAR-TAF:

METAR-TAF

机场 :

莫林, 伊利诺伊州, 美国

纬度: 41-27-05N, 经度: 090-30-53W, 海拔: 179米

当前天气观测

该预报发布于53分钟前的20:52 UTC
风速5节,风向西
温度 -7°C
湿度 41%
气压 1033 hPa
能見度: 16.1公里
天空无云

METAR: KMLI 122052Z 28005KT 10SM CLR M07/M18 A3049 RMK AO2 SLP338 T10721178 56025

时间: 15:45 (21:45 UTC)

预报

该预报发布于4小时和25分钟前的17:20 UTC
预报有效从12日的 18点(UTC)到 13日的 18点(UTC)
风速6节,风向西
能見度: 10公里
天空无云
从 13日的 0000点(UTC)
风速8节,风向南转南东
能見度: 10公里
多云层高于25000英尺
从 13日的 0600点(UTC)
风速14节,风向,有时为22节阵风
能見度: 10公里
多云层高于15000英尺

TAF: KMLI 121720Z 1218/1318 27006KT P6SM SKC FM130000 16008KT P6SM BKN250 FM130600 17014G22KT P6SM BKN150

超过4000个机场的气象观测和天气预报(METAR&TAF报告)。

可查询的气象台以黄色和红色小点在地图上表示。

将鼠标移到小点上方,可查看气象台名称。

然后点击查看天气观测和预报。

如需切换地图:点击带黑十字的绿色按钮放大地图;点击带横线的绿色按钮缩小地图;或者点击绿色箭头查看邻近地区的地图。


METAR-TAF: